createdAt,value
2022-11-18T00:00:57.885Z,94338.78
2022-11-18T00:03:24.660Z,94347.13
2022-11-18T00:05:56.284Z,94342.34
2022-11-18T00:08:24.280Z,94349.53
2022-11-18T00:10:51.750Z,94357.75
2022-11-18T00:13:37.812Z,94355.56
2022-11-18T00:16:07.300Z,94358.25
2022-11-18T00:18:34.137Z,94356.25
2022-11-18T00:21:06.698Z,94355.44
2022-11-18T00:23:33.746Z,94348.88
2022-11-18T00:26:09.487Z,94350.50
2022-11-18T00:28:36.515Z,94350.31
2022-11-18T00:31:12.025Z,94344.31
2022-11-18T00:33:39.316Z,94344.13
2022-11-18T00:36:11.877Z,94339.53
2022-11-18T00:38:39.823Z,94352.97
2022-11-18T00:41:13.624Z,94347.19
2022-11-18T00:43:40.980Z,94344.81
2022-11-18T00:46:10.204Z,94346.22
2022-11-18T00:48:37.907Z,94347.47
2022-11-18T00:51:22.495Z,94348.88
2022-11-18T00:53:49.274Z,94339.31
2022-11-18T00:56:16.029Z,94341.09
2022-11-18T00:58:42.809Z,94344.09
2022-11-18T01:01:09.763Z,94344.81
2022-11-18T01:03:36.566Z,94345.25
2022-11-18T01:06:03.381Z,94338.25
2022-11-18T01:08:30.190Z,94341.22
2022-11-18T01:11:16.891Z,94341.28
2022-11-18T01:13:43.660Z,94340.28
2022-11-18T01:16:10.375Z,94336.31
2022-11-18T01:18:37.223Z,94336.72
2022-11-18T01:21:04.257Z,94330.72
2022-11-18T01:23:31.056Z,94332.75
2022-11-18T01:26:07.458Z,94326.56
2022-11-18T01:28:34.527Z,94327.94
2022-11-18T01:31:09.959Z,94326.72
2022-11-18T01:33:36.773Z,94328.75
2022-11-18T01:36:04.041Z,94321.38
2022-11-18T01:38:30.850Z,94321.97
2022-11-18T01:40:57.633Z,94321.13
2022-11-18T01:43:24.537Z,94321.72
2022-11-18T01:45:53.939Z,94322.56
2022-11-18T01:48:23.670Z,94321.38
2022-11-18T01:51:16.337Z,94319.56
2022-11-18T01:53:51.776Z,94317.78
2022-11-18T01:56:23.960Z,94317.16
2022-11-18T01:58:56.267Z,94314.19
2022-11-18T02:01:23.727Z,94310.22
2022-11-18T02:03:53.057Z,94314.03
2022-11-18T02:06:20.670Z,94321.25
2022-11-18T02:08:48.743Z,94317.09
2022-11-18T02:11:34.774Z,94322.50
2022-11-18T02:14:04.299Z,94315.72
2022-11-18T02:16:52.137Z,94322.56
2022-11-18T02:19:24.806Z,94316.19
2022-11-18T02:22:08.671Z,94314.16
2022-11-18T02:25:06.496Z,94321.19
2022-11-18T02:28:05.223Z,94319.59
2022-11-18T02:30:44.651Z,94317.41
2022-11-18T02:33:16.802Z,94318.63
2022-11-18T02:35:57.306Z,94317.44
2022-11-18T02:38:36.824Z,94323.06
2022-11-18T02:41:09.692Z,94322.25
2022-11-18T02:43:52.707Z,94324.44
2022-11-18T02:46:26.536Z,94329.81
2022-11-18T02:48:54.320Z,94337.00
2022-11-18T02:51:26.024Z,94336.25
2022-11-18T02:53:57.152Z,94331.66
2022-11-18T02:56:26.060Z,94333.84
2022-11-18T02:58:52.874Z,94338.88
2022-11-18T03:01:31.298Z,94335.66
2022-11-18T03:03:58.272Z,94337.44
2022-11-18T03:06:31.621Z,94341.03
2022-11-18T03:09:07.321Z,94339.06
2022-11-18T03:11:59.994Z,94342.69
2022-11-18T03:14:56.993Z,94351.91
2022-11-18T03:17:31.149Z,94348.72
2022-11-18T03:20:20.393Z,94342.50
2022-11-18T03:22:52.832Z,94357.53
2022-11-18T03:25:42.093Z,94351.31
2022-11-18T03:28:19.525Z,94354.53
2022-11-18T03:30:54.163Z,94361.38
2022-11-18T03:33:26.526Z,94360.78
2022-11-18T03:35:54.703Z,94355.38
2022-11-18T03:38:29.296Z,94357.59
2022-11-18T03:41:03.651Z,94356.81
2022-11-18T03:43:37.432Z,94362.00
2022-11-18T03:46:10.963Z,94360.00
2022-11-18T03:48:48.126Z,94360.00
2022-11-18T03:51:18.730Z,94366.03
2022-11-18T03:53:54.075Z,94370.03
2022-11-18T03:56:29.260Z,94363.44
2022-11-18T03:59:22.393Z,94355.22
2022-11-18T04:01:57.864Z,94356.81
2022-11-18T04:04:27.197Z,94366.25
2022-11-18T04:07:10.157Z,94362.44
2022-11-18T04:10:13.512Z,94363.28
2022-11-18T04:12:50.645Z,94354.44
2022-11-18T04:15:17.648Z,94357.44
2022-11-18T04:17:44.441Z,94368.03
2022-11-18T04:20:18.680Z,94373.06
2022-11-18T04:22:45.913Z,94360.03
2022-11-18T04:25:13.312Z,94366.25
2022-11-18T04:27:40.263Z,94362.03
2022-11-18T04:30:08.306Z,94367.25
2022-11-18T04:32:35.558Z,94378.09
2022-11-18T04:35:02.489Z,94377.28
2022-11-18T04:37:29.279Z,94385.69
2022-11-18T04:39:56.027Z,94381.09
2022-11-18T04:42:22.916Z,94388.91
2022-11-18T04:44:49.654Z,94386.31
2022-11-18T04:47:16.483Z,94383.91
2022-11-18T04:49:43.304Z,94380.47
2022-11-18T04:52:10.058Z,94380.47
2022-11-18T04:54:36.923Z,94379.47
2022-11-18T04:57:04.149Z,94374.28
2022-11-18T04:59:30.999Z,94379.31
2022-11-18T05:01:59.477Z,94376.88
2022-11-18T05:04:30.102Z,94380.47
2022-11-18T05:06:57.922Z,94382.09
2022-11-18T05:09:30.431Z,94381.50
2022-11-18T05:12:17.621Z,94379.72
2022-11-18T05:14:49.580Z,94380.31
2022-11-18T05:17:17.663Z,94373.09
2022-11-18T05:19:44.486Z,94382.53
2022-11-18T05:22:11.307Z,94385.34
2022-11-18T05:24:38.113Z,94390.34
2022-11-18T05:27:04.878Z,94398.16
2022-11-18T05:29:31.804Z,94396.56
2022-11-18T05:31:58.536Z,94396.56
2022-11-18T05:34:25.423Z,94394.16
2022-11-18T05:36:52.215Z,94392.53
2022-11-18T05:39:19.307Z,94399.56
2022-11-18T05:42:05.001Z,94399.56
2022-11-18T05:44:31.777Z,94395.34
2022-11-18T05:46:58.595Z,94390.94
2022-11-18T05:49:25.720Z,94399.94
2022-11-18T05:51:52.513Z,94396.31
2022-11-18T05:54:21.087Z,94404.13
2022-11-18T05:56:48.023Z,94401.72
2022-11-18T05:59:15.744Z,94408.94
2022-11-18T06:01:55.685Z,94412.50
2022-11-18T06:04:39.539Z,94413.91
2022-11-18T06:07:32.505Z,94424.31
2022-11-18T06:10:05.238Z,94423.94
2022-11-18T06:12:37.399Z,94428.56
2022-11-18T06:15:12.167Z,94423.56
2022-11-18T06:18:02.252Z,94429.97
2022-11-18T06:20:29.361Z,94427.38
2022-11-18T06:22:58.307Z,94418.56
2022-11-18T06:25:29.708Z,94427.00
2022-11-18T06:27:59.297Z,94418.97
2022-11-18T06:30:26.097Z,94425.22
2022-11-18T06:32:52.914Z,94427.19
2022-11-18T06:35:19.781Z,94425.59
2022-11-18T06:37:47.390Z,94430.19
2022-11-18T06:40:14.306Z,94434.59
2022-11-18T06:42:59.809Z,94428.97
2022-11-18T06:45:26.683Z,94430.97
2022-11-18T06:47:57.530Z,94440.19
2022-11-18T06:50:24.617Z,94447.00
2022-11-18T06:52:51.461Z,94442.19
2022-11-18T06:55:18.299Z,94450.19
2022-11-18T06:57:45.129Z,94453.38
2022-11-18T07:00:12.674Z,94451.78
2022-11-18T07:02:39.427Z,94450.00
2022-11-18T07:05:06.790Z,94454.19
2022-11-18T07:07:41.697Z,94456.19
2022-11-18T07:10:09.351Z,94464.63
2022-11-18T07:12:36.212Z,94458.44
2022-11-18T07:15:03.180Z,94465.66
2022-11-18T07:17:31.350Z,94462.69
2022-11-18T07:19:58.171Z,94463.84
2022-11-18T07:22:25.010Z,94474.28
2022-11-18T07:24:51.778Z,94475.09
2022-11-18T07:27:18.520Z,94472.28
2022-11-18T07:29:45.339Z,94476.28
2022-11-18T07:32:12.104Z,94472.09
2022-11-18T07:34:38.957Z,94475.00
2022-11-18T07:37:05.699Z,94469.38
2022-11-18T07:39:32.452Z,94466.63
2022-11-18T07:41:59.423Z,94471.00
2022-11-18T07:44:26.201Z,94466.19
2022-11-18T07:46:52.964Z,94474.22
2022-11-18T07:49:20.032Z,94468.78
2022-11-18T07:51:46.932Z,94472.03
2022-11-18T07:54:16.628Z,94470.47
2022-11-18T07:56:43.594Z,94472.31
2022-11-18T07:59:10.334Z,94473.91
2022-11-18T08:01:37.282Z,94478.47
2022-11-18T08:04:05.800Z,94477.72
2022-11-18T08:06:34.131Z,94477.75
2022-11-18T08:09:01.297Z,94483.00
2022-11-18T08:11:28.081Z,94472.00
2022-11-18T08:13:54.907Z,94479.44
2022-11-18T08:16:23.881Z,94471.41
2022-11-18T08:18:51.587Z,94474.84
2022-11-18T08:21:20.225Z,94480.22
2022-11-18T08:23:55.130Z,94480.75
2022-11-18T08:26:22.769Z,94494.53
2022-11-18T08:28:49.914Z,94495.53
2022-11-18T08:31:22.435Z,94498.50
2022-11-18T08:33:49.273Z,94491.25
2022-11-18T08:36:20.222Z,94490.38
2022-11-18T08:38:47.058Z,94495.44
2022-11-18T08:41:20.257Z,94500.44
2022-11-18T08:43:47.161Z,94505.28
2022-11-18T08:46:13.886Z,94507.59
2022-11-18T08:48:40.680Z,94503.75
2022-11-18T08:51:11.480Z,94507.41
2022-11-18T08:53:38.290Z,94511.25
2022-11-18T08:56:05.521Z,94506.53
2022-11-18T08:58:32.544Z,94512.97
2022-11-18T09:01:04.895Z,94516.56
2022-11-18T09:03:32.176Z,94518.91
2022-11-18T09:06:14.100Z,94520.69
2022-11-18T09:08:41.762Z,94521.22
2022-11-18T09:11:21.019Z,94536.13
2022-11-18T09:14:32.773Z,94529.06
2022-11-18T09:16:35.969Z,94540.22
2022-11-18T09:19:24.457Z,94538.69
2022-11-18T09:21:50.045Z,94540.03
2022-11-18T09:24:17.335Z,94544.88
2022-11-18T09:26:44.574Z,94545.50
2022-11-18T09:29:14.181Z,94547.81
2022-11-18T09:31:40.906Z,94557.25
2022-11-18T09:34:10.360Z,94567.09
2022-11-18T09:36:37.578Z,94567.34
2022-11-18T09:39:04.800Z,94569.50
2022-11-18T09:41:50.576Z,94571.03
2022-11-18T09:44:42.619Z,94574.56
2022-11-18T09:47:12.299Z,94578.53
2022-11-18T09:49:42.388Z,94583.41
2022-11-18T09:52:22.118Z,94579.53
2022-11-18T09:54:49.304Z,94577.38
2022-11-18T09:57:20.053Z,94572.44
2022-11-18T09:59:46.995Z,94580.28
2022-11-18T10:02:13.824Z,94576.91
2022-11-18T10:04:40.785Z,94569.81
2022-11-18T10:07:20.936Z,94570.09
2022-11-18T10:09:51.872Z,94572.31
2022-11-18T10:12:27.783Z,94575.19
2022-11-18T10:15:06.473Z,94585.28
2022-11-18T10:17:43.492Z,94588.91
2022-11-18T10:20:28.959Z,94591.50
2022-11-18T10:23:05.486Z,94598.19
2022-11-18T10:25:32.270Z,94601.81
2022-11-18T10:28:14.099Z,94604.53
2022-11-18T10:30:41.088Z,94610.19
2022-11-18T10:33:23.126Z,94597.31
2022-11-18T10:35:50.567Z,94602.06
2022-11-18T10:38:18.933Z,94605.69
2022-11-18T10:41:01.631Z,94608.63
2022-11-18T10:43:44.881Z,94619.38
2022-11-18T10:46:39.250Z,94613.75
2022-11-18T10:49:08.861Z,94617.16
2022-11-18T10:51:43.170Z,94618.59
2022-11-18T10:54:22.667Z,94624.50
2022-11-18T10:57:11.132Z,94628.09
2022-11-18T10:59:47.084Z,94637.59
2022-11-18T11:02:19.640Z,94633.50
2022-11-18T11:04:49.114Z,94638.38
2022-11-18T11:07:35.174Z,94639.47
2022-11-18T11:10:04.759Z,94639.34
2022-11-18T11:12:47.287Z,94638.00
2022-11-18T11:15:19.544Z,94639.38
2022-11-18T11:18:11.089Z,94641.41
2022-11-18T11:20:38.951Z,94641.03
2022-11-18T11:23:22.034Z,94636.66
2022-11-18T11:29:19.061Z,94648.56
2022-11-18T11:32:11.040Z,94653.78
2022-11-18T11:34:55.330Z,94654.22
2022-11-18T11:37:24.792Z,94655.59
2022-11-18T11:39:51.502Z,94660.50
2022-11-18T11:42:24.234Z,94658.09
2022-11-18T11:45:19.186Z,94660.81
2022-11-18T11:48:23.328Z,94664.63
2022-11-18T11:51:03.487Z,94672.53
2022-11-18T11:53:41.571Z,94667.88
2022-11-18T11:56:25.854Z,94668.88
2022-11-18T11:59:11.545Z,94668.22
2022-11-18T12:01:47.180Z,94681.53
2022-11-18T12:04:29.167Z,94683.50
2022-11-18T12:06:58.044Z,94690.94
2022-11-18T12:09:34.017Z,94690.94
2022-11-18T12:12:36.700Z,94688.66
2022-11-18T12:15:31.165Z,94692.22
2022-11-18T12:18:09.110Z,94700.50
2022-11-18T12:20:40.537Z,94694.53
2022-11-18T12:23:10.700Z,94705.38
2022-11-18T12:26:10.347Z,94711.03
2022-11-18T12:28:43.418Z,94715.84
2022-11-18T12:31:19.161Z,94717.47
2022-11-18T12:33:48.711Z,94719.88
2022-11-18T12:36:36.263Z,94715.84
2022-11-18T12:39:26.352Z,94721.41
2022-11-18T12:42:11.683Z,94723.50
2022-11-18T12:44:40.273Z,94723.81
2022-11-18T12:47:14.664Z,94734.41
2022-11-18T12:49:44.209Z,94731.34
2022-11-18T12:52:29.248Z,94733.41
2022-11-18T12:55:01.320Z,94732.72
2022-11-18T12:57:33.998Z,94735.72
2022-11-18T13:00:29.832Z,94744.66
2022-11-18T13:02:59.503Z,94748.47
2022-11-18T13:05:32.971Z,94757.28
2022-11-18T13:08:14.183Z,94752.94
2022-11-18T13:11:13.370Z,94760.34
2022-11-18T13:13:41.918Z,94755.97
2022-11-18T13:16:42.162Z,94770.47
2022-11-18T13:19:09.835Z,94767.75
2022-11-18T13:21:55.329Z,94758.72
2022-11-18T13:24:23.206Z,94754.88
2022-11-18T13:26:57.637Z,94764.00
2022-11-18T13:29:44.148Z,94768.13
2022-11-18T13:32:27.499Z,94772.66
2022-11-18T13:34:57.134Z,94775.19
2022-11-18T13:37:34.291Z,94785.56
2022-11-18T13:40:01.288Z,94777.38
2022-11-18T13:42:31.880Z,94788.06
2022-11-18T13:45:03.333Z,94792.94
2022-11-18T13:47:45.908Z,94794.75
2022-11-18T13:50:15.712Z,94800.72
2022-11-18T13:53:08.486Z,94788.78
2022-11-18T13:55:44.002Z,94807.00
2022-11-18T13:58:19.530Z,94804.47
2022-11-18T14:00:58.174Z,94808.63
2022-11-18T14:03:30.287Z,94804.72
2022-11-18T14:05:58.608Z,94801.75
2022-11-18T14:08:31.539Z,94801.34
2022-11-18T14:10:58.895Z,94802.44
2022-11-18T14:13:27.663Z,94809.22
2022-11-18T14:15:57.618Z,94808.72
2022-11-18T14:18:38.269Z,94812.53
2022-11-18T14:21:06.011Z,94810.53
2022-11-18T14:23:37.297Z,94817.59
2022-11-18T14:26:06.402Z,94821.22
2022-11-18T14:28:37.185Z,94818.28
2022-11-18T14:31:21.704Z,94822.44
2022-11-18T14:34:13.407Z,94825.75
2022-11-18T14:36:40.964Z,94830.03
2022-11-18T14:39:34.361Z,94832.44
2022-11-18T14:42:01.853Z,94827.94
2022-11-18T14:44:28.986Z,94831.53
2022-11-18T14:47:00.501Z,94832.41
2022-11-18T14:49:30.862Z,94833.28
2022-11-18T14:51:57.625Z,94826.78
2022-11-18T14:54:27.604Z,94828.84
2022-11-18T14:57:05.756Z,94832.44
2022-11-18T14:59:32.623Z,94842.59
2022-11-18T15:02:06.645Z,94848.47
2022-11-18T15:04:33.685Z,94854.69
2022-11-18T15:07:00.513Z,94858.00
2022-11-18T15:09:27.338Z,94857.16
2022-11-18T15:11:54.381Z,94865.56
2022-11-18T15:14:21.807Z,94866.19
2022-11-18T15:16:48.827Z,94872.78
2022-11-18T15:19:16.256Z,94870.59
2022-11-18T15:21:45.442Z,94877.28
2022-11-18T15:24:12.401Z,94880.53
2022-11-18T15:26:41.901Z,94879.84
2022-11-18T15:29:24.388Z,94882.03
2022-11-18T15:31:51.956Z,94895.03
2022-11-18T15:34:20.628Z,94895.03
2022-11-18T15:36:47.787Z,94901.56
2022-11-18T15:39:14.652Z,94903.56
2022-11-18T15:41:43.012Z,94904.13
2022-11-18T15:44:10.857Z,94906.03
2022-11-18T15:46:37.677Z,94906.97
2022-11-18T15:49:04.695Z,94912.13
2022-11-18T15:51:33.322Z,94919.69
2022-11-18T15:54:00.182Z,94914.00
2022-11-18T15:56:31.769Z,94924.94
2022-11-18T15:59:07.373Z,94924.50
2022-11-18T16:01:39.214Z,94932.06
2022-11-18T16:04:08.176Z,94925.91
2022-11-18T16:06:35.576Z,94936.81
2022-11-18T16:09:02.744Z,94936.47
2022-11-18T16:11:48.332Z,94944.59
2022-11-18T16:14:18.163Z,94941.31
2022-11-18T16:16:47.349Z,94948.09
2022-11-18T16:19:16.890Z,94948.38
2022-11-18T16:21:47.238Z,94952.00
2022-11-18T16:24:17.342Z,94950.75
2022-11-18T16:26:44.395Z,94944.09
2022-11-18T16:29:12.568Z,94963.16
2022-11-18T16:31:43.879Z,94976.69
2022-11-18T16:34:22.104Z,94961.47
2022-11-18T16:36:57.048Z,94971.13
2022-11-18T16:39:26.296Z,94978.66
2022-11-18T16:42:03.832Z,94981.63
2022-11-18T16:44:35.176Z,94986.75
2022-11-18T16:47:02.234Z,94985.66
2022-11-18T16:49:29.055Z,94995.97
2022-11-18T16:51:56.998Z,94988.88
2022-11-18T16:54:31.439Z,94991.72
2022-11-18T16:56:59.478Z,95002.19
2022-11-18T16:59:28.462Z,95006.03
2022-11-18T17:01:56.835Z,95008.84
2022-11-18T17:04:25.622Z,95011.88
2022-11-18T17:06:53.750Z,95019.25
2022-11-18T17:09:23.964Z,95026.19
2022-11-18T17:11:52.632Z,95022.69
2022-11-18T17:14:22.288Z,95025.19
2022-11-18T17:16:50.921Z,95032.16
2022-11-18T17:19:21.656Z,95032.88
2022-11-18T17:21:49.612Z,95034.22
2022-11-18T17:24:19.786Z,95041.56
2022-11-18T17:26:48.380Z,95039.13
2022-11-18T17:29:15.514Z,95038.88
2022-11-18T17:31:42.860Z,95035.53
2022-11-18T17:34:12.084Z,95042.97
2022-11-18T17:36:39.000Z,95044.28
2022-11-18T17:39:05.836Z,95045.13
2022-11-18T17:41:51.490Z,95051.72
2022-11-18T17:44:19.052Z,95062.06
2022-11-18T17:46:47.296Z,95057.72
2022-11-18T17:49:18.031Z,95066.50
2022-11-18T17:51:48.029Z,95065.81
2022-11-18T17:54:15.105Z,95069.78
2022-11-18T17:56:42.153Z,95077.63
2022-11-18T17:59:08.987Z,95086.38
2022-11-18T18:01:35.894Z,95095.78
2022-11-18T18:04:03.343Z,95094.53
2022-11-18T18:06:30.089Z,95092.22
2022-11-18T18:08:58.330Z,95098.66
2022-11-18T18:11:26.089Z,95103.28
2022-11-18T18:14:11.430Z,95103.41
2022-11-18T18:16:47.255Z,95105.66
2022-11-18T18:19:20.619Z,95106.16
2022-11-18T18:21:48.161Z,95106.31
2022-11-18T18:24:17.563Z,95109.06
2022-11-18T18:26:44.607Z,95104.69
2022-11-18T18:29:12.743Z,95101.34
2022-11-18T18:31:39.687Z,95112.38
2022-11-18T18:34:06.675Z,95120.69
2022-11-18T18:36:34.091Z,95117.56
2022-11-18T18:39:02.291Z,95126.28
2022-11-18T18:41:29.126Z,95115.88
2022-11-18T18:43:56.746Z,95118.97
2022-11-18T18:46:36.612Z,95113.44
2022-11-18T18:49:12.090Z,95121.38
2022-11-18T18:51:41.423Z,95129.31
2022-11-18T18:54:11.313Z,95131.22
2022-11-18T18:56:41.140Z,95125.31
2022-11-18T18:59:08.829Z,95129.06
2022-11-18T19:01:36.721Z,95137.94
2022-11-18T19:04:06.345Z,95148.81
2022-11-18T19:09:27.026Z,95149.81
2022-11-18T19:12:12.982Z,95155.50
2022-11-18T19:14:39.921Z,95155.19
2022-11-18T19:17:11.110Z,95152.78
2022-11-18T19:19:59.728Z,95147.56
2022-11-18T19:22:29.689Z,95163.56
2022-11-18T19:24:56.688Z,95171.41
2022-11-18T19:27:23.952Z,95166.06
2022-11-18T19:29:50.747Z,95161.06
2022-11-18T19:32:17.930Z,95174.09
2022-11-18T19:34:44.859Z,95177.94
2022-11-18T19:37:12.297Z,95182.47
2022-11-18T19:39:39.237Z,95187.03
2022-11-18T19:42:06.082Z,95196.47
2022-11-18T19:44:33.469Z,95193.53
2022-11-18T19:47:00.876Z,95189.28
2022-11-18T19:49:28.094Z,95192.31
2022-11-18T19:51:55.150Z,95189.03
2022-11-18T19:54:22.056Z,95179.75
2022-11-18T19:56:48.773Z,95175.28
2022-11-18T19:59:16.235Z,95175.28
2022-11-18T20:01:44.454Z,95167.72
2022-11-18T20:04:12.172Z,95169.56
2022-11-18T20:06:40.337Z,95174.25
2022-11-18T20:09:08.654Z,95175.97
2022-11-18T20:11:36.927Z,95172.28
2022-11-18T20:14:04.518Z,95171.31
2022-11-18T20:16:33.861Z,95176.34
2022-11-18T20:19:08.033Z,95180.34
2022-11-18T20:21:39.422Z,95191.63
2022-11-18T20:24:07.985Z,95194.91
2022-11-18T20:26:39.558Z,95202.75
2022-11-18T20:29:09.262Z,95202.16
2022-11-18T20:31:37.207Z,95209.28
2022-11-18T20:34:05.207Z,95199.81
2022-11-18T20:36:34.873Z,95197.44
2022-11-18T20:39:06.960Z,95200.00
2022-11-18T20:41:36.302Z,95207.00
2022-11-18T20:44:04.083Z,95208.72
2022-11-18T20:46:31.058Z,95216.75
2022-11-18T20:48:57.857Z,95214.19
2022-11-18T20:51:26.563Z,95204.88
2022-11-18T20:53:55.509Z,95212.84
2022-11-18T20:56:26.739Z,95211.75
2022-11-18T20:58:54.195Z,95222.28
2022-11-18T21:01:23.955Z,95230.63
2022-11-18T21:03:53.210Z,95245.31
2022-11-18T21:06:22.363Z,95250.22
2022-11-18T21:08:54.102Z,95253.72
2022-11-18T21:11:20.881Z,95248.03
2022-11-18T21:14:06.081Z,95252.56
2022-11-18T21:16:33.025Z,95240.31
2022-11-18T21:19:00.227Z,95246.28
2022-11-18T21:21:46.131Z,95240.69
2022-11-18T21:24:24.168Z,95235.66
2022-11-18T21:26:54.763Z,95237.56
2022-11-18T21:29:23.513Z,95247.47
2022-11-18T21:31:50.747Z,95242.66
2022-11-18T21:34:18.391Z,95252.00
2022-11-18T21:36:50.380Z,95253.28
2022-11-18T21:39:21.937Z,95262.59
2022-11-18T21:41:54.904Z,95269.50
2022-11-18T21:44:22.425Z,95286.19
2022-11-18T21:46:49.231Z,95281.63
2022-11-18T21:49:16.450Z,95290.22
2022-11-18T21:51:44.085Z,95289.75
2022-11-18T21:54:12.608Z,95291.75
2022-11-18T21:56:39.508Z,95292.94
2022-11-18T21:59:07.789Z,95293.63
2022-11-18T22:01:35.034Z,95284.97
2022-11-18T22:04:04.347Z,95296.19
2022-11-18T22:06:33.625Z,95287.88
2022-11-18T22:09:01.728Z,95280.22
2022-11-18T22:11:28.799Z,95286.63
2022-11-18T22:13:55.934Z,95287.66
2022-11-18T22:16:24.764Z,95296.88
2022-11-18T22:18:58.216Z,95298.00
2022-11-18T22:21:28.083Z,95291.50
2022-11-18T22:24:00.246Z,95283.91
2022-11-18T22:26:27.877Z,95291.97
2022-11-18T22:28:57.044Z,95293.25
2022-11-18T22:31:25.594Z,95300.69
2022-11-18T22:33:53.507Z,95299.88
2022-11-18T22:36:22.629Z,95309.19
2022-11-18T22:38:49.903Z,95308.50
2022-11-18T22:41:39.377Z,95305.72
2022-11-18T22:44:08.423Z,95318.56
2022-11-18T22:46:37.105Z,95324.19
2022-11-18T22:49:05.216Z,95324.06
2022-11-18T22:51:32.523Z,95323.94
2022-11-18T22:54:30.739Z,95327.56
2022-11-18T22:56:46.414Z,95326.50
2022-11-18T22:59:13.716Z,95327.78
2022-11-18T23:01:40.683Z,95324.88
2022-11-18T23:04:07.792Z,95329.31
2022-11-18T23:06:34.731Z,95335.72
2022-11-18T23:09:01.867Z,95341.78
2022-11-18T23:11:47.702Z,95334.00
2022-11-18T23:14:14.766Z,95334.78
2022-11-18T23:16:43.162Z,95342.72
2022-11-18T23:19:12.491Z,95349.00
2022-11-18T23:21:40.227Z,95345.94
2022-11-18T23:24:07.873Z,95337.44
2022-11-18T23:26:34.616Z,95326.94
2022-11-18T23:29:01.591Z,95341.75
2022-11-18T23:31:29.035Z,95341.16
2022-11-18T23:33:57.982Z,95340.84
2022-11-18T23:36:25.774Z,95357.78
2022-11-18T23:38:54.845Z,95352.63
2022-11-18T23:41:22.387Z,95353.13
2022-11-18T23:43:49.797Z,95363.38
2022-11-18T23:46:18.064Z,95364.09
2022-11-18T23:48:46.046Z,95374.22
2022-11-18T23:51:21.787Z,95371.88
2022-11-18T23:53:53.011Z,95372.50
2022-11-18T23:56:20.754Z,95380.19
2022-11-18T23:58:49.733Z,95382.97
